createdAt,value
2022-09-23T00:01:58.504Z,72.56
2022-09-23T00:12:01.769Z,71.92
2022-09-23T00:22:06.540Z,72.08
2022-09-23T00:32:08.814Z,72.52
2022-09-23T00:42:14.672Z,72.01
2022-09-23T00:52:23.422Z,72.01
2022-09-23T01:02:26.248Z,72.82
2022-09-23T01:12:40.407Z,72.76
2022-09-23T01:22:52.092Z,72.59
2022-09-23T01:33:12.605Z,73.20
2022-09-23T01:43:26.740Z,72.96
2022-09-23T01:53:59.928Z,72.91
2022-09-23T02:04:24.020Z,73.08
2022-09-23T02:14:36.920Z,72.93
2022-09-23T02:24:40.127Z,72.39
2022-09-23T02:34:58.060Z,72.55
2022-09-23T02:45:00.399Z,72.41
2022-09-23T02:55:02.762Z,72.56
2022-09-23T03:05:19.194Z,72.87
2022-09-23T03:15:52.281Z,72.99
2022-09-23T03:25:57.050Z,73.00
2022-09-23T03:36:22.686Z,72.35
2022-09-23T03:46:27.742Z,72.43
2022-09-23T03:56:30.038Z,71.90
2022-09-23T04:06:32.309Z,72.85
2022-09-23T04:16:34.642Z,73.13
2022-09-23T04:26:38.288Z,73.12
2022-09-23T04:36:40.979Z,73.02
2022-09-23T04:46:47.722Z,73.90
2022-09-23T04:56:50.183Z,74.06
2022-09-23T05:06:52.450Z,74.28
2022-09-23T05:16:54.688Z,74.76
2022-09-23T05:26:56.973Z,74.72
2022-09-23T05:36:59.844Z,74.67
2022-09-23T05:47:02.894Z,74.10
2022-09-23T05:57:06.297Z,74.48
2022-09-23T06:07:08.928Z,74.65
2022-09-23T06:17:11.245Z,75.61
2022-09-23T06:27:13.628Z,78.34
2022-09-23T06:37:20.177Z,75.95
2022-09-23T06:47:22.651Z,76.47
2022-09-23T06:57:24.969Z,77.80
2022-09-23T07:07:31.515Z,78.09
2022-09-23T07:17:33.859Z,78.69
2022-09-23T07:27:36.160Z,78.15
2022-09-23T07:37:38.550Z,77.90
2022-09-23T07:47:41.129Z,77.02
2022-09-23T07:57:43.465Z,77.08
2022-09-23T08:07:45.804Z,77.22
2022-09-23T08:17:48.090Z,77.12
2022-09-23T08:27:50.365Z,74.39
2022-09-23T08:37:52.640Z,71.40
2022-09-23T08:48:12.986Z,71.58
2022-09-23T08:58:52.405Z,69.05
2022-09-23T09:09:02.356Z,65.24
2022-09-23T09:19:13.864Z,66.86
2022-09-23T09:29:41.627Z,68.61
2022-09-23T09:39:44.590Z,66.74
2022-09-23T09:49:59.175Z,65.07
2022-09-23T10:00:35.704Z,58.84
2022-09-23T10:10:37.987Z,59.75
2022-09-23T10:20:40.738Z,56.31
2022-09-23T10:31:14.331Z,53.91
2022-09-23T10:42:00.284Z,53.66
2022-09-23T10:52:02.635Z,51.30
2022-09-23T11:02:13.825Z,49.48
2022-09-23T11:12:35.511Z,50.74
2022-09-23T11:22:58.732Z,48.75
2022-09-23T11:33:33.324Z,50.90
2022-09-23T11:43:40.064Z,51.31
2022-09-23T11:54:00.056Z,50.15
2022-09-23T12:04:24.428Z,52.07
2022-09-23T12:14:26.934Z,49.53
2022-09-23T12:24:54.502Z,50.49
2022-09-23T12:34:57.025Z,50.45
2022-09-23T12:45:26.363Z,49.88
2022-09-23T12:55:34.655Z,50.14
2022-09-23T13:06:19.104Z,48.42
2022-09-23T13:16:37.211Z,47.52
2022-09-23T13:26:44.672Z,44.38
2022-09-23T13:36:48.668Z,47.88
2022-09-23T13:46:56.521Z,43.44
2022-09-23T13:56:59.821Z,45.87
2022-09-23T14:07:02.873Z,46.26
2022-09-23T14:17:07.688Z,47.52
2022-09-23T14:27:17.872Z,41.35
2022-09-23T14:37:56.513Z,48.11
2022-09-23T14:48:08.040Z,48.31
2022-09-23T14:58:17.721Z,50.50
2022-09-23T15:08:26.452Z,48.09
2022-09-23T15:18:33.376Z,46.84
2022-09-23T15:28:35.818Z,46.54
2022-09-23T15:38:43.188Z,45.07
2022-09-23T15:48:58.908Z,47.85
2022-09-23T15:59:01.386Z,47.28
2022-09-23T16:09:03.997Z,51.88
2022-09-23T16:19:06.322Z,53.54
2022-09-23T16:29:10.617Z,54.58
2022-09-23T16:39:14.323Z,56.63
2022-09-23T16:49:16.688Z,58.97
2022-09-23T16:59:18.987Z,60.14
2022-09-23T17:09:28.483Z,60.61
2022-09-23T17:19:30.915Z,61.98
2022-09-23T17:29:33.216Z,62.71
2022-09-23T17:39:35.527Z,62.94
2022-09-23T17:49:37.785Z,63.85
2022-09-23T17:59:40.062Z,64.94
2022-09-23T18:09:42.395Z,65.52
2022-09-23T18:19:49.305Z,65.80
2022-09-23T18:29:51.592Z,68.11
2022-09-23T18:39:53.854Z,67.80
2022-09-23T18:50:14.789Z,67.73
2022-09-23T19:00:17.202Z,68.45
2022-09-23T19:10:19.941Z,69.33
2022-09-23T19:20:22.889Z,68.31
2022-09-23T19:30:25.419Z,68.48
2022-09-23T19:40:31.344Z,69.50
2022-09-23T19:50:38.570Z,69.58
2022-09-23T20:00:41.469Z,69.59
2022-09-23T20:10:44.598Z,69.30
2022-09-23T20:20:54.960Z,69.43
2022-09-23T20:40:11.621Z,69.46
2022-09-23T20:50:14.114Z,69.33
2022-09-23T21:00:18.412Z,69.25
2022-09-23T21:10:22.887Z,69.64
2022-09-23T21:20:25.202Z,70.16
2022-09-23T21:30:27.524Z,69.85
2022-09-23T21:40:48.467Z,70.60
2022-09-23T21:51:19.395Z,70.59
2022-09-23T22:10:12.297Z,71.13
2022-09-23T22:20:16.159Z,70.21
2022-09-23T22:30:36.799Z,70.61
2022-09-23T22:40:42.857Z,70.27
2022-09-23T22:50:46.327Z,69.79
2022-09-23T23:00:48.593Z,69.75
2022-09-23T23:10:50.884Z,69.71
2022-09-23T23:20:53.167Z,69.71
2022-09-23T23:30:55.455Z,69.30
2022-09-23T23:41:02.818Z,68.64
2022-09-23T23:51:07.493Z,68.99
